Terminal Aerodrome Forecast
Issued by NWS

Home | Current Version | Previous Version | Text Only | Print | Product List | Glossary On
Versions: 1 2 3 4 5 6 7 8 9 10 11 12 13 14 15 16
642
FTUS45 KABQ 222325
TAFAEG
TAF
KAEG 222325Z 2300/2324 12011KT P6SM VCTS SCT090CB BKN150
     FM230300 02015G25KT P6SM VCSH BKN090
     FM230600 04010KT P6SM BKN120
     FM231200 02007KT P6SM FEW070 SCT120
     FM231800 08012KT P6SM SCT090
     FM232000 10012KT P6SM VCTS BKN090CB=

USA.gov is the U.S. government's official web portal to all federal, state and local government web resources and services.